Airfield :
LOGIN :

Register | Disclaimer

   EN    FR    IT 

 










Legend :    VFR   Marginal VFR   IFR   Intensive IFR   Very Intensive IFR
Visi :
Ceiling :
>= 8 km
>= 3000ft
5 to 8 km
1000 to 3000 ft
1500m to 5 km
500 to 1000 ft
800 to 1500m
200 to 500 ft
< 800m
< 200 ft
Symbols :   Thunderstorms  Fog  Heavy snow  Heavy precipitations  Wind > 20 kt
SIGMETs :     Misc.  Thunderstorms  Icing  Turbulence  Mountain Waves  Volcanic Ashes






- Airport Elevation : 13 ft
- IATA code : OST


EBOS - Oostend bruges Int.

CURRENT METAR :
  • 200350Z 21011KT 9999 FEW015 SCT020 08/06 Q1015 NOSIG

EXPIRED METARs :
  • 200320Z 21012KT 9999 FEW015 SCT020 07/06 Q1015 NOSIG
  • 200250Z 21013KT 9999 FEW015 SCT020 08/06 Q1016 NOSIG
  • 200220Z 20012KT 9999 FEW015 SCT020 08/06 Q1016 NOSIG
  • 200150Z 20013KT 9999 FEW010 SCT015 BKN020 08/06 Q1016 NOSIG
  • 200120Z 21013KT 9999 FEW010 SCT015 BKN020 08/06 Q1016 NOSIG

TAF TAF EBOS
Valid from the 20 at 00:00 until the 21 at 06:00 UTC


192300Z 2000/2106 21016G27KT 9999 SCT018 BKN035
PROB30
TEMPO 2000/2007 4500 -DZ SCT008 BKN012
PROB30
TEMPO 2007/2012 4500 -RA BR BKN014
TEMPO 2013/2017 22025G40KT 4000 RA SHRA BKN014 SCT020TCU
BECMG 2016/2018 29022G35KT
BECMG 2102/2104 25015G25KT



MET'MAP, your aeronautical weather chart ! - Copyright ORBIFLY December 2007 - Disclaimer

ORBIFLY MET'MAP TEAM :

Programming & Development : Alexandra Zaïnal
Concept & original design : Baudouin d'Aumeries
Assistance for programming : Marc-Olivier Méhu
Technical & hardware support : Manuel Goepfert

Contact : metmap@orbifly.com




SOURCES & CREDITS :

   NOAA